Flight Track Log - Related Links

Times and Time Zones

All times are in EST time to prevent confusion due to time zone crossing. See the LAN439 flight status page for this flight to view local times or setup timezone preferences in your user account.

Time Position Orientation Groundspeed Altitude Reporting Facility
EST Latitude Longitude Course Direction KTS MPH feet Rate Location/Type
Mon 06:50:41 AM -33.4269 -70.7992 180° South 189 217 2,900  Level FlightAware ADS-B
Mon 06:51:01 AM -33.4410 -70.7983 177° South 215 247 3,400 1,846 Climbing FlightAware ADS-B
Mon 06:51:20 AM -33.4644 -70.7983 180° South 238 274 4,100 2,462 Climbing FlightAware ADS-B
Mon 06:51:40 AM -33.4879 -70.7977 179° South 268 308 5,000 3,220 Climbing FlightAware ADS-B
Mon 06:52:01 AM -33.5121 -70.7963 177° South 273 314 6,300 3,659 Climbing FlightAware ADS-B
Mon 06:52:21 AM -33.5346 -70.7951 177° South 286 329 7,500 3,600 Climbing FlightAware ADS-B
Mon 06:52:41 AM -33.5612 -70.7935 177° South 283 326 8,700 3,600 Climbing FlightAware ADS-B
Mon 06:53:01 AM -33.5816 -70.7923 177° South 291 335 9,900 3,447 Climbing FlightAware ADS-B
Mon 06:53:28 AM -33.6153 -70.7907 178° South 302 348 11,400 3,579 Climbing FlightAware ADS-B
Mon 06:53:58 AM -33.6606 -70.7885 178° South 307 353 13,300 3,041 Climbing FlightAware ADS-B
Mon 06:54:41 AM -33.7117 -70.7607 156° South 324 373 15,100 2,055 Climbing FlightAware ADS-B
Mon 06:55:11 AM -33.7447 -70.7296 142° Southeast 354 407 15,800 2,000 Climbing FlightAware ADS-B
Mon 06:55:41 AM -33.7797 -70.6969 142° Southeast 370 426 17,100 2,500 Climbing FlightAware ADS-B
Mon 06:56:11 AM -33.8230 -70.6560 142° Southeast 373 429 18,300 2,300 Climbing FlightAware ADS-B
Mon 06:56:41 AM -33.8583 -70.6227 142° Southeast 380 437 19,400 2,100 Climbing FlightAware ADS-B
Mon 06:57:11 AM -33.9023 -70.5807 142° Southeast 389 448 20,400 2,100 Climbing FlightAware ADS-B
Mon 06:57:41 AM -33.9390 -70.5367 135° Southeast 394 453 21,500 2,066 Climbing FlightAware ADS-B
Mon 06:58:12 AM -33.9744 -70.4834 129° Southeast 400 460 22,500 1,967 Climbing FlightAware ADS-B
Mon 06:58:42 AM -34.0029 -70.4270 121° Southeast 402 463 23,500 1,913 Climbing FlightAware ADS-B
Mon 06:59:21 AM -34.0298 -70.3525 114° Southeast 408 470 24,700 1,739 Climbing FlightAware ADS-B
Mon 06:59:51 AM -34.0480 -70.2888 109° East 418 481 25,500 1,672 Climbing FlightAware ADS-B
Mon 07:00:22 AM -34.0717 -70.2064 109° East 420 483 26,400 1,826 Climbing FlightAware ADS-B
Mon 07:01:00 AM -34.0973 -70.1182 109° East 427 491 27,600 1,652 Climbing FlightAware ADS-B
Mon 07:01:31 AM -34.1165 -70.0505 109° East 433 498 28,300 1,389 Climbing FlightAware ADS-B
Mon 07:02:48 AM -34.1697 -69.8629 109° East 446 513 30,100 1,351 Climbing FlightAware ADS-B
Mon 07:03:22 AM -34.1927 -69.7821 109° East 449 517 30,800 1,477 Climbing FlightAware ADS-B
Mon 07:03:53 AM -34.2120 -69.7038 107° East 451 519 31,700 1,754 Climbing FlightAware ADS-B
Mon 07:04:27 AM -34.2236 -69.6176 99° East 447 514 32,700 94 Climbing FlightAware ADS-B
Mon 07:06:00 AM -34.2374 -69.4343 95° East  Level Estimated
Mon 07:07:00 AM -34.2461 -69.3160 95° East  Level Estimated
Mon 07:08:00 AM -34.2547 -69.1977 95° East  Level Estimated
Mon 07:09:00 AM -34.2633 -69.0794 95° East  Level Estimated
Mon 07:10:00 AM -34.2717 -68.9610 95° East  Level Estimated
Mon 07:11:00 AM -34.2799 -68.8426 95° East  Level Estimated
Mon 07:12:00 AM -34.2881 -68.7242 95° East  Level Estimated
Mon 07:13:00 AM -34.2962 -68.6058 95° East  Level Estimated
Mon 07:14:00 AM -34.3041 -68.4874 95° East  Level Estimated
Mon 07:15:00 AM -34.3119 -68.3689 95° East  Level Estimated
Mon 07:16:00 AM -34.3196 -68.2504 95° East  Level Estimated
Mon 07:17:00 AM -34.3273 -68.1319 94° East  Level Estimated
Mon 07:18:00 AM -34.3347 -68.0133 94° East  Level Estimated
Mon 07:19:00 AM -34.3421 -67.8948 94° East  Level Estimated
Mon 07:20:00 AM -34.3494 -67.7762 94° East  Level Estimated
Mon 07:21:00 AM -34.3565 -67.6576 94° East  Level Estimated
Mon 07:22:00 AM -34.3635 -67.5390 94° East  Level Estimated
Mon 07:23:00 AM -34.3704 -67.4203 94° East  Level Estimated
Mon 07:24:00 AM -34.3773 -67.3017 94° East  Level Estimated
Mon 07:25:00 AM -34.3839 -67.1830 94° East  Level Estimated
Mon 07:26:00 AM -34.3905 -67.0643 94° East  Level Estimated
Mon 07:27:00 AM -34.3970 -66.9456 94° East  Level Estimated
Mon 07:28:00 AM -34.4033 -66.8268 94° East  Level Estimated
Mon 07:29:00 AM -34.4095 -66.7081 94° East  Level Estimated
Mon 07:30:00 AM -34.4156 -66.5893 94° East  Level Estimated
Mon 07:31:00 AM -34.4216 -66.4705 94° East  Level Estimated
Mon 07:32:00 AM -34.4275 -66.3517 93° East  Level Estimated
Mon 07:33:00 AM -34.4333 -66.2329 93° East  Level Estimated
Mon 07:34:00 AM -34.4389 -66.1141 93° East  Level Estimated
Mon 07:35:00 AM -34.4445 -65.9952 93° East  Level Estimated
Mon 07:36:00 AM -34.4499 -65.8763 93° East  Level Estimated
Mon 07:37:00 AM -34.4552 -65.7575 93° East  Level Estimated
Mon 07:38:00 AM -34.4604 -65.6386 93° East  Level Estimated
Mon 07:39:00 AM -34.4655 -65.5197 93° East  Level Estimated
Mon 07:40:00 AM -34.4704 -65.4007 93° East  Level Estimated
Mon 07:41:00 AM -34.4753 -65.2818 93° East  Level Estimated
Mon 07:42:00 AM -34.4800 -65.1628 93° East  Level Estimated
Mon 07:43:00 AM -34.4846 -65.0439 93° East  Level Estimated
Mon 07:44:00 AM -34.4891 -64.9249 93° East  Level Estimated
Mon 07:45:00 AM -34.4935 -64.8059 93° East  Level Estimated
Mon 07:46:00 AM -34.4978 -64.6869 93° East  Level Estimated
Mon 07:47:00 AM -34.5019 -64.5678 92° East  Level Estimated
Mon 07:48:00 AM -34.5060 -64.4488 92° East  Level Estimated
Mon 07:49:00 AM -34.5099 -64.3298 92° East  Level Estimated
Mon 07:50:00 AM -34.5137 -64.2107 92° East  Level Estimated
Mon 07:51:00 AM -34.5174 -64.0917 92° East  Level Estimated
Mon 07:52:00 AM -34.5210 -63.9726 92° East  Level Estimated
Mon 07:53:00 AM -34.5244 -63.8535 92° East  Level Estimated
Mon 07:54:00 AM -34.5278 -63.7344 92° East  Level Estimated
Mon 07:55:00 AM -34.5310 -63.6153 92° East  Level Estimated
Mon 07:56:00 AM -34.5341 -63.4962 92° East  Level Estimated
Mon 07:57:00 AM -34.5371 -63.3771 92° East  Level Estimated
Mon 07:58:00 AM -34.5400 -63.2580 92° East  Level Estimated
Mon 07:59:00 AM -34.5428 -63.1388 92° East  Level Estimated
Mon 08:00:00 AM -34.5454 -63.0197 92° East  Level Estimated
Mon 08:00:09 AM -35.0020 -61.0320 92° East 39,000  Level FlightAware ADS-B
Mon 08:00:47 AM -35.0050 -60.9080 92° East 38,100 -1,462 Descending FlightAware ADS-B
Mon 08:01:27 AM -35.0070 -60.8200 92° East 482 555 37,100 -1,792 Descending FlightAware ADS-B
Mon 08:02:04 AM -35.0090 -60.7040 91° East 470 541 35,800 -2,028 Descending FlightAware ADS-B
Mon 08:02:38 AM -35.0100 -60.6120 91° East 520 598 34,700 -1,790 Descending FlightAware ADS-B
Mon 08:03:12 AM -35.0120 -60.5420 92° East 33,900 -1,733 Descending FlightAware ADS-B
Mon 08:04:08 AM -35.0150 -60.3980 91° East 422 486 32,100 -2,045 Descending FlightAware ADS-B
Mon 08:04:40 AM -35.0160 -60.3020 91° East 484 557 30,900 -1,890 Descending FlightAware ADS-B
Mon 08:05:21 AM -35.0180 -60.2120 92° East 452 520 29,800 -1,778 Descending FlightAware ADS-B
Mon 08:06:01 AM -35.0190 -60.1120 91° East 416 479 28,500 -1,895 Descending FlightAware ADS-B
Mon 08:06:37 AM -35.0200 -60.0270 91° East 432 497 27,400 -1,759 Descending FlightAware ADS-B
Mon 08:07:23 AM -35.0220 -59.9250 91° East 26,100 -1,725 Descending FlightAware ADS-B
Mon 08:07:57 AM -35.0220 -59.8490 90° East 395 455 25,100 -1,184 Descending FlightAware ADS-B
Mon 08:08:39 AM -34.9990 -59.7790 68° East 347 399 24,600 -1,065 Descending FlightAware ADS-B
Mon 08:08:59 AM -34.9730 -59.7360 54° Northeast 366 421 24,000 -1,867 Descending FlightAware ADS-B
Mon 08:09:24 AM -34.9490 -59.6960 54° Northeast 361 415 23,200 -2,839 Descending FlightAware ADS-B
Mon 08:10:51 AM -34.8620 -59.5480 54° Northeast 372 428 18,700 -3,139 Descending FlightAware ADS-B
Mon 08:11:55 AM -34.7750 -59.4350 47° Northeast 430 495 15,300 -2,118 Descending FlightAware ADS-B
Mon 08:12:50 AM -34.7150 -59.3470 50° Northeast 402 463 14,500 -867 Descending FlightAware ADS-B
Mon 08:13:25 AM -34.6800 -59.2960 50° Northeast 358 412 14,000 -1,015 Descending FlightAware ADS-B
Mon 08:13:55 AM -34.6520 -59.2540 51° Northeast 330 380 13,400 -1,385 Descending FlightAware ADS-B
Mon 08:14:30 AM -34.6210 -59.2050 52° Northeast 318 366 12,500 -2,000 Descending FlightAware ADS-B
Mon 08:15:00 AM -34.5940 -59.1650 51° Northeast 11,600 -2,229 Descending FlightAware ADS-B
Mon 08:15:40 AM -34.5580 -59.1120 50° Northeast 307 353 9,900 -2,560 Descending FlightAware ADS-B
Mon 08:16:15 AM -34.5280 -59.0670 51° Northeast 301 346 8,400 -2,080 Descending FlightAware ADS-B
Mon 08:16:55 AM -34.4930 -59.0150 51° Northeast 297 342 7,300 -1,500 Descending FlightAware ADS-B
Mon 08:17:31 AM -34.4640 -58.9700 52° Northeast 292 336 6,500 -1,371 Descending FlightAware ADS-B
Mon 08:18:05 AM -34.4340 -58.9270 50° Northeast 289 333 5,700 -1,406 Descending FlightAware ADS-B
Mon 08:18:35 AM -34.4090 -58.8890 51° Northeast 293 337 5,000 -420 Descending FlightAware ADS-B
Mon 08:19:15 AM -34.3780 -58.8440 50° Northeast 5,000  Level FlightAware ADS-B
Mon 08:19:45 AM -34.3580 -58.8130 52° Northeast 250 288 5,000  Level FlightAware ADS-B
Mon 08:20:20 AM -34.3350 -58.7770 52° Northeast 233 268 5,000  Level FlightAware ADS-B
Mon 08:21:00 AM -34.3430 -58.7370 104° East 186 214 5,000 -369 Level FlightAware ADS-B
Mon 08:21:25 AM -34.3580 -58.7160 131° Southeast 184 212 4,600 -800 Descending FlightAware ADS-B
Mon 08:22:15 AM -34.3870 -58.6740 130° Southeast 197 227 4,000 -1,172 Descending FlightAware ADS-B
Mon 08:22:52 AM -34.4100 -58.6420 131° Southeast 200 230 2,900 -709 Descending FlightAware ADS-B
Mon 08:23:33 AM -34.4310 -58.6130 131° Southeast 2,700 -164 Descending FlightAware ADS-B
Mon 08:24:05 AM -34.4450 -58.5930 130° Southeast 159 183 2,700  Level FlightAware ADS-B
Mon 08:24:37 AM -34.4630 -58.5720 136° Southeast 158 182 2,700 -79 Level FlightAware ADS-B
Mon 08:25:21 AM -34.4840 -58.5490 138° Southeast 152 175 2,600 -462 Descending FlightAware ADS-B
Mon 08:25:55 AM -34.4990 -58.5240 126° Southeast 149 171 2,100 -815 Descending FlightAware ADS-B
Mon 08:26:42 AM -34.5160 -58.4930 124° Southeast 150 173 1,500 -730 Descending FlightAware ADS-B
Mon 08:27:09 AM -34.5260 -58.4750 124° Southeast 142 163 1,200 -723 Descending FlightAware ADS-B
Mon 08:27:35 AM -34.5340 -58.4610 125° Southeast 900 -750 Descending FlightAware ADS-B
Mon 08:28:05 AM -34.5450 -58.4410 124° Southeast 135 155 500 -800 Descending FlightAware ADS-B
Mon 08:31:00 AM -34.5500 -58.4167 90° East  Level FlightAware Approximate
Mon 08:32:00 AM -34.5592 -58.4156 90° East  Level Estimated
Mon 08:33:00 AM -34.5592 -58.4156 90° East  Level Estimated
Mon 08:34:00 AM -34.5592 -58.4156 90° East  Level Estimated
Mon 08:35:00 AM -34.5592 -58.4156 90° East  Level Estimated
Mon 08:36:00 AM -34.5592 -58.4156 90° East  Level Estimated

Login

Don't have an account? Register now (free) for customized features, flight alerts, and more!